createdAt,value
2023-05-10T00:13:15.820Z,2.50
2023-05-10T00:50:35.534Z,3.40
2023-05-10T01:27:54.392Z,4.30
2023-05-10T01:46:33.294Z,3.40
2023-05-10T02:05:14.975Z,1.90
2023-05-10T02:23:50.074Z,2.40
2023-05-10T02:42:29.996Z,5.00
2023-05-10T03:01:09.300Z,2.90
2023-05-10T03:19:48.564Z,2.20
2023-05-10T03:38:29.021Z,3.30
2023-05-10T03:57:08.338Z,3.70
2023-05-10T04:15:47.464Z,2.20
2023-05-10T04:34:27.310Z,3.70
2023-05-10T04:53:08.001Z,3.20
2023-05-10T05:30:28.488Z,3.10
2023-05-10T05:49:10.854Z,2.80
2023-05-10T06:26:32.150Z,3.10
2023-05-10T06:45:13.146Z,3.40
2023-05-10T07:03:52.546Z,2.50
2023-05-10T07:22:34.751Z,4.20
2023-05-10T07:41:18.244Z,3.40
2023-05-10T07:59:59.363Z,3.90
2023-05-10T08:18:40.480Z,3.10
2023-05-10T08:37:21.960Z,3.40
2023-05-10T08:56:01.660Z,2.00
2023-05-10T09:14:41.927Z,2.50
2023-05-10T09:33:21.473Z,2.40
2023-05-10T09:52:01.283Z,2.10
2023-05-10T10:10:39.586Z,2.00
2023-05-10T10:29:21.033Z,2.40
2023-05-10T10:48:00.558Z,2.80
2023-05-10T11:06:39.685Z,1.90
2023-05-10T11:25:16.340Z,2.30
2023-05-10T11:44:00.128Z,2.00
2023-05-10T12:21:21.095Z,1.90
2023-05-10T12:39:56.157Z,2.30
2023-05-10T12:58:35.798Z,1.70
2023-05-10T13:17:11.348Z,1.50
2023-05-10T13:35:47.859Z,2.90
2023-05-10T13:54:25.602Z,2.20
2023-05-10T14:31:40.510Z,1.20
2023-05-10T14:50:24.931Z,2.10
2023-05-10T15:08:56.084Z,3.20
2023-05-10T15:27:34.194Z,2.80
2023-05-10T15:46:13.285Z,3.00
2023-05-10T16:04:50.173Z,2.00
2023-05-10T16:42:06.151Z,3.30
2023-05-10T17:00:44.465Z,2.40
2023-05-10T17:37:59.018Z,9.80
2023-05-10T17:56:37.277Z,8.60
2023-05-10T18:15:13.080Z,9.70
2023-05-10T18:33:52.845Z,10.20
2023-05-10T18:52:30.014Z,7.30
2023-05-10T19:11:09.614Z,8.00
2023-05-10T19:48:27.445Z,9.30
2023-05-10T20:07:07.943Z,9.10
2023-05-10T20:25:47.118Z,8.60
2023-05-10T20:44:25.735Z,11.10
2023-05-10T21:03:05.318Z,13.80
2023-05-10T21:21:43.911Z,15.60
2023-05-10T21:40:23.347Z,13.90
2023-05-10T22:17:42.535Z,13.60
2023-05-10T22:36:21.567Z,9.80
2023-05-10T22:55:01.041Z,11.50
2023-05-10T23:13:39.234Z,9.30
2023-05-10T23:32:18.194Z,7.40
2023-05-10T23:50:57.195Z,7.40
